Weather observations for the past three days for
Daviess County Airport
Imperial (Metric)
Date Time (edt) Wind (mph) Vis. (mi.) Weather Sky Cond. Temperature (ºF) Relative Humidity Wind Chill (°F) Heat Index (°F) Pressure Precipitation (in)
Air Dwpt 6 hour altimeter (in) sea level (mb) 1 hr 3 hr 6 hr
Max. Min.
03 10:55 SW 7 10.00 Fair CLR 89.2 72.1 57% 96 30.03 0.0
03 10:35 SW 7 10.00 Fair CLR 88.9 72.1 58% 96 30.03 0.0
03 10:15 SW 8 10.00 Fair CLR 87.6 71.8 59% 94 30.03 0.0
03 09:55 SW 7 10.00 Fair CLR 85.6 72 64% 92 30.03 0.0
03 09:35 S 5 10.00 Fair CLR 82.9 72.5 71% 88 30.04 0.0
03 09:15 SE 5 10.00 Fair CLR 79.7 72.5 79% 83 30.04 0.0
03 08:55 SE 5 10.00 Fair CLR 77.5 72.5 85% 79 30.04 0.0
03 08:35 SE 3 10.00 Fair CLR 75.9 72 88% 76 30.04 0.0
03 08:15 SE 5 10.00 Fair CLR 74.5 71.8 91% 30.04 0.0
03 07:55 SE 5 10.00 Fair CLR 73.2 71.1 74.3 70.9 93% 30.04 0.0
03 07:35 SE 5 10.00 Fair CLR 72.9 71.1 94% 30.03 0.0
03 07:15 SE 5 10.00 Fair CLR 72.1 70.9 96% 30.03 0.0
03 06:55 SE 5 10.00 Fair CLR 72.1 70.9 96% 30.03 0.0
03 06:35 SE 5 10.00 Fair CLR 72.7 71.2 95% 30.02 0.0
03 06:15 SE 6 10.00 Fair CLR 72.5 71.1 95% 30.02 0.0
03 05:55 SE 5 10.00 Fair CLR 71.6 70.7 97% 30.02 0.0
03 05:35 SE 5 10.00 Fair CLR 71.8 70.7 96% 30.02 0.0
03 05:15 Calm 10.00 Fair CLR 72.3 70.5 94% 30.02 0.0
03 04:55 SE 3 10.00 Fair CLR 73 70.7 92% 30.02 0.0
03 04:35 S 3 10.00 Fair CLR 72.9 71.2 95% 30.02 0.0
03 04:15 S 5 10.00 Fair CLR 72 70.7 96% 30.02 0.0
03 03:55 Calm 10.00 Fair CLR 70.9 69.4 95% 30.01 0.0
03 03:35 Calm 10.00 Fair CLR 71.6 70.5 96% 30.01 0.0
03 03:15 Calm 10.00 Fair CLR 72.3 70.2 93% 30 0.0
03 02:55 Calm 10.00 Fair CLR 72.1 70.5 95% 30.01 0.0
03 02:35 Calm 3.00 Fog/Mist CLR 72.5 70.9 95% 30.01 0.0
03 02:15 Calm 10.00 Fair CLR 72.1 70.7 95% 30.01 0.0
03 01:55 Calm 10.00 Fair CLR 74.3 71.4 90 74.1 91% 30 0.0
03 01:35 Calm 10.00 Fair CLR 75 71.6 89% 74 30 0.0
03 01:15 Calm 10.00 Fair CLR 75.2 71.6 89% 75 30 0.0
03 00:55 Calm 10.00 Fair CLR 75.4 71.6 88% 75 30 0.0
03 00:35 Calm 10.00 Fair CLR 76.8 71.6 84% 78 30 0.0
03 00:15 S 5 10.00 Fair CLR 76.6 71.8 85% 78 30 0.0
02 23:55 S 6 10.00 Fair CLR 77.7 71.8 82% 80 30 0.0
02 23:35 SW 6 10.00 Fair CLR 81.7 70.2 68% 85 29.99 0.0
02 23:15 SW 6 10.00 Fair CLR 80.8 71.2 73% 85 30 0.0
02 22:55 S 6 10.00 Fair CLR 81.1 71.1 72% 85 30 0.0
02 22:35 SW 6 10.00 Fair CLR 81.1 71.8 73% 85 29.99 0.0
02 22:15 S 6 10.00 Fair CLR 82 71.8 71% 87 30 0.0
02 21:55 S 6 10.00 Fair CLR 82.6 71.6 70% 87 29.99 0.0
02 21:35 SW 6 10.00 Fair CLR 83.3 71.8 68% 89 29.99 0.0
02 21:15 S 6 10.00 Fair CLR 83.8 71.8 67% 89 29.98 0.0
02 20:55 S 7 10.00 Fair CLR 84.7 72 66% 91 29.98 0.0
02 20:35 S 6 10.00 Fair CLR 85.6 72 64% 92 29.98 0.0
02 20:15 S 6 10.00 Fair CLR 87.6 72.5 61% 95 29.98 0.0
02 19:55 S 6 10.00 Fair CLR 90.1 72.1 98.2 90.1 56% 98 29.98 0.0
02 19:35 S 6 10.00 Fair CLR 92.7 71.6 50% 100 29.98 0.0
02 19:15 S 7 10.00 Fair CLR 94.3 70.7 46% 101 29.98 0.0
02 18:55 S 9 10.00 Fair CLR 95.4 70 44% 102 29.98 0.0
02 18:35 SW 7 10.00 Fair CLR 96.1 70.3 43% 103 29.98 0.0
02 18:15 SW 9 10.00 Fair CLR 96.1 69.8 43% 103 29.99 0.0
02 17:55 S 10 10.00 Partly Cloudy SCT070 SCT080 SCT100 96.8 69.6 41% 103 29.99 0.0
02 17:35 S 10 10.00 Partly Cloudy SCT070 SCT080 SCT100 97 70.3 42% 104 29.99 0.0
02 17:15 S 9 G 17 10.00 Partly Cloudy SCT070 96.8 69.8 42% 103 29.99 0.0
02 16:55 S 12 10.00 Partly Cloudy SCT070 97 70 42% 104 29.99 0.0
02 16:35 SW 8 10.00 Partly Cloudy SCT070 97.9 70 40% 105 30 0.0
02 16:15 SW 7 10.00 Fair CLR 97.5 69.4 40% 104 30 0.0
02 15:55 SW 12 G 18 10.00 Fair CLR 97.9 67.6 37% 103 30.01 0.0
02 15:35 SW 12 10.00 Fair CLR 97.7 68.7 39% 104 30.02 0.0
02 15:15 SW 9 10.00 Fair CLR 97.7 70.5 41% 105 30.03 0.0
02 14:55 SW 10 10.00 Fair CLR 97 69.4 41% 103 30.03 0.0
02 14:35 S 6 G 9 10.00 Fair CLR 96.8 70 42% 104 30.03 0.0
02 14:15 W 8 G 16 10.00 Fair CLR 96.3 72.1 46% 105 30.04 0.0
02 13:55 SW 7 10.00 Fair CLR 95.5 71.8 95.5 72.3 46% 104 30.04 0.0
02 13:35 SW 9 10.00 Fair CLR 94.8 72.3 48% 104 30.05 0.0
02 13:15 SW 9 10.00 Fair CLR 94.3 72.3 49% 103 30.05 0.0
02 12:55 SW 10 10.00 Fair CLR 93.7 72.5 50% 102 30.06 0.0
02 12:35 SW 9 10.00 Fair CLR 93.4 72.3 50% 102 30.07 0.0
02 12:15 SW 9 10.00 Fair CLR 92.7 72.9 53% 101 30.07 0.0
02 11:55 SW 10 10.00 Fair CLR 91.9 72.3 53% 100 30.07 0.0
02 11:35 SW 9 10.00 Fair CLR 90.7 72.5 55% 99 30.07 0.0
02 11:15 SW 9 10.00 Fair CLR 89.8 72.5 57% 97 30.07 0.0
02 10:55 SW 9 10.00 Fair CLR 89.1 72.3 58% 96 30.07 0.0
02 10:35 SW 9 10.00 Fair CLR 88 71.6 58% 94 30.08 0.0
02 10:15 SW 8 10.00 Fair CLR 86.9 71.8 61% 93 30.07 0.0
02 09:55 SW 9 10.00 Fair CLR 86 72 63% 92 30.08 0.0
02 09:35 SW 6 10.00 Fair CLR 84.6 72.1 66% 90 30.08 0.0
02 09:15 S 3 10.00 Fair CLR 80.2 73 79% 85 30.08 0.0
02 08:55 SE 6 10.00 Fair CLR 77 72.5 86% 78 30.08 0.0
02 08:35 SE 3 10.00 Fair CLR 75.6 72.1 89% 75 30.08 0.0
02 08:15 SE 3 10.00 Fair CLR 73.8 72.1 95% 30.08 0.0
02 07:55 SE 5 10.00 Fair CLR 72.1 71.1 79.5 70.2 96% 30.07 0.0
02 07:35 SE 5 10.00 Fair CLR 71.6 70.3 96% 30.07 0.0
02 07:15 SE 5 10.00 Fair CLR 71.6 70.7 97% 30.06 0.0
02 06:55 SE 6 10.00 Fair CLR 71.1 70.2 97% 30.06 0.0
02 06:35 Calm 10.00 Fair CLR 70.9 70.3 98% 30.05 0.0
02 06:15 S 3 10.00 Fair CLR 70.2 69.4 98% 30.05 0.0
02 05:55 Calm 10.00 Fair CLR 70.7 69.8 97% 30.05 0.0
02 05:35 Calm 10.00 Fair CLR 71.1 69.8 96% 30.05 0.0
02 05:15 Calm 10.00 Fair CLR 71.6 69.8 94% 30.04 0.0
02 04:55 Calm 10.00 Fair CLR 71.6 70.3 96% 30.04 0.0
02 04:35 SE 3 10.00 Fair CLR 72 70.2 94% 30.04 0.0
02 04:15 SE 3 10.00 Fair CLR 72.5 70.7 94% 30.03 0.0
02 03:55 SE 5 10.00 Fair CLR 72.7 70.7 94% 30.03 0.0
02 03:35 SE 5 10.00 Fair CLR 72.5 70 92% 30.04 0.0
02 03:15 E 3 10.00 Fair CLR 73.8 70.5 90% 30.03 0.0
02 02:55 Calm 10.00 Fair CLR 74.3 70.5 88% 30.03 0.0
02 02:35 Calm 10.00 Fair CLR 77.5 70 78% 79 30.03 0.0
02 02:15 SW 5 10.00 Fair CLR 79.3 70.3 74% 82 30.03 0.0
02 01:55 Calm 10.00 Fair CLR 74.7 70.7 89.2 74.5 88% 30.03 0.0
02 01:35 Calm 10.00 Fair CLR 75.4 70.7 85% 75 30.03 0.0
02 01:15 E 3 10.00 Fair CLR 75.4 70.7 85% 75 30.03 0.0
02 00:55 Calm 10.00 Fair CLR 74.8 70.7 87% 30.03 0.0
02 00:35 Calm 10.00 Fair CLR 75.2 70.7 86% 75 30.03 0.0
02 00:15 Calm 10.00 Fair CLR 77 70.5 80% 79 30.03 0.0
01 23:55 S 5 10.00 Fair CLR 78.1 70.7 78% 80 30.03 0.0
01 23:35 S 6 10.00 Fair CLR 79.9 70.5 73% 83 30.03 0.0
01 23:15 S 7 10.00 Fair CLR 78.8 70.7 76% 82 30.03 0.0
01 22:55 S 7 10.00 Fair CLR 79 70.7 76% 82 30.03 0.0
01 22:35 S 6 10.00 Fair CLR 79.3 70.7 75% 82 30.03 0.0
01 22:15 S 6 10.00 Fair CLR 80.6 70.9 72% 84 30.03 0.0
01 21:55 S 7 10.00 Fair CLR 81.5 70.7 70% 85 30.02 0.0
01 21:35 S 7 10.00 Fair CLR 82.4 70.7 68% 87 30.02 0.0
01 21:15 S 7 10.00 Fair CLR 83.3 70.7 66% 88 30.01 0.0
01 20:55 S 7 10.00 Fair CLR 83.3 71.4 68% 88 30.01 0.0
01 20:35 S 7 10.00 Fair CLR 84.2 71.6 66% 90 30 0.0
01 20:15 S 6 10.00 Fair CLR 86.2 71.6 62% 92 30 0.0
01 19:55 S 6 10.00 Fair CLR 89.4 71.6 97.7 89.4 56% 96 30 0.0
01 19:35 S 5 10.00 Fair CLR 91.9 71.2 51% 99 30.01 0.0
01 19:15 S 7 10.00 Fair CLR 93.9 70.2 46% 100 30.01 0.0
01 18:55 S 6 10.00 Fair CLR 95 68.9 43% 100 30.01 0.0
01 18:35 S 7 10.00 Fair CLR 95.5 68.9 42% 101 30.01 0.0
01 18:15 S 8 10.00 Fair CLR 95.9 70.3 44% 103 30 0.0
01 17:55 SW 7 10.00 Fair CLR 96.3 69.8 42% 103 30 0.0
01 17:35 S 9 10.00 Fair CLR 96.4 69.1 41% 102 30 0.0
01 17:15 SW 9 10.00 Fair CLR 97.2 69.6 41% 104 30 0.0
01 16:55 SW 6 10.00 Fair CLR 96.8 69.8 42% 103 30.01 0.0
01 16:35 S 6 10.00 Fair CLR 97 69.8 41% 104 30.01 0.0
01 16:15 SW 9 10.00 Fair CLR 96.8 69.8 42% 103 30.02 0.0
01 15:55 SW 10 10.00 Fair CLR 96.8 70.5 43% 104 30.02 0.0
01 15:35 S 5 10.00 Fair CLR 97 69.8 41% 104 30.03 0.0
01 15:15 SW 12 10.00 Fair CLR 96.6 70.3 43% 104 30.04 0.0
01 14:55 SW 6 10.00 Fair CLR 96.8 69.6 41% 103 30.04 0.0
01 14:35 SW 13 10.00 Fair CLR 96.1 70.7 44% 103 30.05 0.0
01 14:15 SW 10 10.00 Fair CLR 95.5 70.9 45% 103 30.05 0.0
01 13:55 SW 8 10.00 Fair CLR 95.4 71.4 95.4 70.7 46% 103 30.05 0.0
01 13:35 SW 10 G 16 10.00 Fair CLR 94.6 71.4 47% 102 30.06 0.0
01 13:15 SW 10 10.00 Fair CLR 93.6 71.8 49% 101 30.07 0.0
01 12:55 W 12 G 16 10.00 Fair CLR 93.2 72.9 52% 102 30.07 0.0
01 12:35 SW 10 10.00 Fair CLR 92.5 72.7 53% 101 30.08 0.0
01 12:15 W 8 10.00 Fair CLR 91.2 72.7 55% 99 30.08 0.0
01 11:55 SW 10 10.00 Fair CLR 90.1 72.7 57% 98 30.08 0.0
01 11:35 SW 7 10.00 Fair CLR 88.7 73.2 60% 97 30.08 0.0
01 11:15 SW 12 10.00 Fair CLR 88 72.9 61% 96 30.08 0.0
01 10:55 SW 13 G 17 10.00 Fair CLR 86.9 72.3 62% 94 30.08 0.0
01 10:35 SW 7 10.00 Fair CLR 85.8 72.5 65% 92 30.08 0.0
01 10:15 SW 9 10.00 Fair CLR 84.7 72.1 66% 91 30.09 0.0
01 09:35 SW 7 10.00 Fair CLR 81.9 71.6 71% 86 30.09 0.0
01 09:15 SW 7 10.00 Fair CLR 81 71.4 73% 85 30.09 0.0
01 08:55 SW 6 10.00 Fair CLR 79 71.4 78% 82 30.1 0.0
01 08:35 S 6 10.00 Fair CLR 76.8 71.8 85% 78 30.09 0.0
01 08:15 Calm 10.00 Fair CLR 72.3 70.7 95% 30.08 0.0
01 07:55 Calm 10.00 Fair CLR 70.7 69.8 79.2 69.3 97% 30.08 0.0
01 07:35 SE 5 10.00 Fair CLR 69.4 68.9 98% 30.07 0.0
01 07:15 Calm 10.00 Fair CLR 69.3 68.2 96% 30.06 0.0
01 06:55 Calm 10.00 Fair CLR 69.8 67.8 93% 30.06 0.0
01 06:35 SW 3 10.00 Fair CLR 73.6 68.4 84% 30.06 0.0
01 06:15 SW 6 10.00 Fair CLR 72.9 70.9 94% 30.05 0.0
01 05:55 Calm 10.00 Fair CLR 70 68 93% 30.05 0.0
01 05:35 Calm 10.00 Fair CLR 70.3 68 92% 30.05 0.0
01 05:15 Calm 10.00 Fair CLR 73.2 68.5 85% 30.05 0.0
01 04:55 SW 6 10.00 Fair CLR 75.4 69.8 83% 76 30.05 0.0
01 04:35 SW 6 10.00 Fair CLR 77 69.8 79% 79 30.04 0.0
01 04:15 SW 7 10.00 Fair CLR 77.2 69.8 78% 79 30.04 0.0
01 03:55 SW 8 10.00 Fair CLR 77 69.8 79% 79 30.04 0.0
01 03:35 S 7 10.00 Fair CLR 76.8 69.8 79% 78 30.04 0.0
01 03:15 S 7 10.00 Fair CLR 77.2 69.8 78% 79 30.04 0.0
01 02:55 SW 7 10.00 Fair CLR 77.5 69.8 77% 79 30.04 0.0
01 02:35 S 7 10.00 Fair CLR 77.4 69.4 77% 79 30.04 0.0
01 02:15 S 5 10.00 Fair CLR 78.4 69.3 74% 81 30.05 0.0
01 01:55 SW 7 10.00 Fair CLR 79.3 69.4 87.4 78.6 72% 82 30.05 0.0
01 01:35 SW 8 10.00 Fair CLR 79.7 69.4 71% 83 30.05 0.0
01 01:15 SW 7 10.00 Fair CLR 79.2 69.4 72% 82 30.05 0.0
01 00:55 SW 7 10.00 Fair CLR 79.3 69.3 71% 82 30.05 0.0
01 00:35 SW 7 10.00 Fair CLR 79.9 69.4 71% 83 30.04 0.0
01 00:15 SW 8 10.00 Fair CLR 81 69.4 68% 84 30.04 0.0
31 23:55 SW 9 10.00 Fair CLR 81.5 69.6 67% 85 30.04 0.0
31 23:35 SW 7 10.00 Fair CLR 80.1 69.8 71% 83 30.04 0.0
31 23:15 S 7 10.00 Fair CLR 79.3 69.6 72% 82 30.04 0.0
31 22:55 SW 6 10.00 Fair CLR 79.7 69.8 72% 83 30.04 0.0
31 22:35 SW 7 10.00 Fair CLR 79.2 70 74% 82 30.04 0.0
31 22:15 S 7 10.00 Fair CLR 78.8 70.2 75% 81 30.04 0.0
31 21:55 S 6 10.00 Fair CLR 78.8 70.2 75% 81 30.04 0.0
31 21:35 S 6 10.00 Fair CLR 79.2 70.3 74% 82 30.03 0.0
31 21:15 S 6 7.00 Fair CLR 80.2 70.2 71% 84 30.03 0.0
31 20:55 S 6 10.00 Fair CLR 79.9 70.7 74% 83 30.02 0.0
31 20:35 S 5 4.00 Fair with Haze CLR 82.6 70.3 67% 87 30.02 0.0
31 20:15 SW 6 4.00 Fair with Haze CLR 85.1 70.3 61% 90 30.02 0.0
31 19:35 S 6 10.00 Fair CLR 90.1 70.2 52% 96 30.01 0.0
31 19:15 S 6 10.00 Fair CLR 91.6 69.8 49% 97 30.01 0.0
31 18:55 S 10 10.00 Partly Cloudy SCT055 92.3 69.1 47% 97 30.02 0.0
31 18:35 SW 8 10.00 Mostly Cloudy BKN055 BKN075 93.2 70.7 48% 100 30.02 0.0
31 18:15 SW 8 10.00 Partly Cloudy SCT055 SCT075 93.9 71.4 48% 102 30.02 0.0
31 17:55 S 10 10.00 Partly Cloudy SCT055 SCT075 93.7 70.5 47% 100 30.02 0.0
31 17:35 S 12 10.00 Mostly Cloudy SCT055 BKN070 92.3 70.3 49% 98 30.02 0.0
31 17:15 S 9 10.00 Partly Cloudy SCT055 94.5 70.7 46% 101 30.02 0.0
31 16:55 S 9 10.00 Partly Cloudy SCT055 93.6 69.8 46% 100 30.03 0.0
31 16:35 SW 9 10.00 Partly Cloudy SCT055 93.9 70.7 47% 101 30.03 0.0
31 16:15 SW 6 10.00 Partly Cloudy SCT055 94.6 71.4 47% 102 30.04 0.0
31 15:55 SW 9 G 16 10.00 Partly Cloudy SCT055 93.7 71.1 48% 101 30.05 0.0
31 15:35 SW 12 G 17 10.00 Partly Cloudy SCT055 94.1 71.2 48% 102 30.05 0.0
31 15:15 SW 12 10.00 Partly Cloudy SCT050 93.6 70.5 47% 100 30.06 0.0
31 14:55 SW 8 10.00 Partly Cloudy SCT050 93.2 70.7 48% 100 30.06 0.0
31 14:35 SW 7 10.00 Partly Cloudy SCT050 93.2 71.6 50% 101 30.07 0.0
31 14:15 SW 9 10.00 Partly Cloudy SCT050 92.5 72.1 52% 100 30.08 0.0
31 13:55 SW 12 G 17 10.00 Partly Cloudy SCT046 SCT055 92.5 71.8 93.4 72.3 51% 100 30.08 0.0
31 13:35 S 10 10.00 Partly Cloudy SCT048 91.4 72.3 54% 99 30.09 0.0
31 13:15 W 6 10.00 Partly Cloudy SCT046 91.9 72.7 53% 100 30.1 0.0
31 12:55 SW 12 10.00 Fair CLR 91.4 72.9 55% 100 30.1 0.0
31 12:35 W 9 10.00 Fair CLR 90.3 72.7 56% 98 30.1 0.0
31 12:15 SW 10 10.00 Fair CLR 89.8 72.9 58% 98 30.1 0.0
31 11:55 SW 10 G 17 10.00 Fair CLR 88.9 73 60% 97 30.1 0.0
31 11:35 SW 6 10.00 Fair CLR 87.4 72.5 61% 95 30.1 0.0
31 11:15 SW 9 10.00 Fair CLR 86.4 72.5 63% 93 30.11 0.0
Date Time (edt) Wind (mph) Vis. (mi.) Weather Sky Cond. Air Dwpt Max. Min. Relative Humidity Wind Chill (°F) Heat Index (°F) altimeter (in) sea level (mb) 1 hr 3 hr 6 hr
6 hour
Temperature (ºF) Pressure Precipitation (in)